Time;durP1;ratioP1;P1;durP2;ratioP2;P2;SDS_P1;SDS_P2;PMS_P1;PMS_P2;Temp;Humidity;BMP_temperature;BMP_pressure;BME280_temperature;BME280_humidity;BME280_pressure;Samples;Min_cycle;Max_cycle;Signal;HPM_P1;HPM_P2
2021/08/19 00:00:58;;;;;;;3.40;3.03;;;17.60;99.90;;;;;;5038488;28;20236;-81
2021/08/19 00:03:25;;;;;;;4.53;2.33;;;17.70;99.90;;;;;;5038376;28;20164;-83
2021/08/19 00:05:50;;;;;;;2.70;2.50;;;17.80;99.90;;;;;;5037669;28;20195;-82
2021/08/19 00:08:16;;;;;;;3.20;2.70;;;17.80;99.90;;;;;;5038151;28;20908;-83
2021/08/19 00:10:41;;;;;;;3.00;2.73;;;17.70;99.90;;;;;;5038819;28;20165;-83
2021/08/19 00:13:07;;;;;;;3.10;2.80;;;17.50;99.90;;;;;;5038016;28;20505;-82
2021/08/19 00:15:33;;;;;;;3.83;2.60;;;17.40;99.90;;;;;;5038268;28;20535;-83
2021/08/19 00:17:59;;;;;;;4.90;3.20;;;17.30;99.90;;;;;;5037736;28;20165;-82
2021/08/19 00:20:24;;;;;;;3.40;3.10;;;17.40;99.90;;;;;;5037945;28;20417;-82
2021/08/19 00:22:50;;;;;;;3.20;2.90;;;17.30;99.90;;;;;;5037788;28;20161;-82
2021/08/19 00:25:15;;;;;;;3.07;2.83;;;17.40;99.90;;;;;;5037789;28;20625;-82
2021/08/19 00:27:42;;;;;;;3.07;2.60;;;17.60;99.90;;;;;;5037310;28;20165;-82
2021/08/19 00:30:08;;;;;;;4.40;3.03;;;17.70;99.90;;;;;;5038046;28;20165;-82
2021/08/19 00:32:34;;;;;;;3.03;2.70;;;17.60;99.90;;;;;;5038560;28;20395;-83
2021/08/19 00:34:59;;;;;;;3.03;2.83;;;17.60;99.90;;;;;;5037974;28;20400;-82
2021/08/19 00:37:25;;;;;;;2.90;2.60;;;17.70;99.90;;;;;;5038077;28;20576;-82
2021/08/19 00:39:50;;;;;;;3.27;2.97;;;17.70;99.90;;;;;;5020437;28;20172;-82
2021/08/19 00:42:18;;;;;;;2.67;2.47;;;17.50;99.90;;;;;;5038126;28;20175;-81
2021/08/19 00:44:48;;;;;;;2.53;2.33;;;17.70;99.90;;;;;;5038850;28;20287;-83
2021/08/19 00:47:14;;;;;;;6.87;3.10;;;17.40;99.90;;;;;;5038573;28;20395;-83
2021/08/19 00:49:40;;;;;;;3.10;2.90;;;17.50;99.90;;;;;;5037925;28;20483;-83
2021/08/19 00:52:06;;;;;;;3.57;2.83;;;17.60;99.90;;;;;;5020300;28;20395;-82
2021/08/19 00:54:32;;;;;;;2.73;2.53;;;17.70;99.90;;;;;;5038161;28;20400;-82
2021/08/19 00:57:00;;;;;;;3.07;2.87;;;17.70;99.90;;;;;;5020438;28;20434;-83
2021/08/19 00:59:29;;;;;;;2.93;2.73;;;17.60;99.90;;;;;;5037970;28;20633;-83
2021/08/19 01:01:55;;;;;;;3.33;2.97;;;17.50;99.90;;;;;;5038213;28;20399;-83
2021/08/19 01:04:21;;;;;;;2.70;2.50;;;17.50;99.90;;;;;;5020604;28;20455;-82
2021/08/19 01:06:47;;;;;;;3.73;3.00;;;17.40;99.90;;;;;;5038519;28;20396;-83
2021/08/19 01:09:13;;;;;;;2.57;2.37;;;17.30;99.90;;;;;;5037951;28;20275;-82
2021/08/19 01:11:40;;;;;;;3.00;2.80;;;17.30;99.90;;;;;;5037998;28;20236;-83
2021/08/19 01:14:06;;;;;;;4.70;3.50;;;17.50;99.90;;;;;;5020505;28;20515;-83
2021/08/19 01:16:33;;;;;;;4.13;3.10;;;17.40;99.90;;;;;;5037959;28;20394;-83
2021/08/19 01:18:58;;;;;;;2.20;2.00;;;17.50;99.90;;;;;;5038191;28;20450;-83
2021/08/19 01:21:24;;;;;;;3.23;2.93;;;17.50;99.90;;;;;;5037703;28;20407;-83
2021/08/19 01:23:49;;;;;;;6.70;3.27;;;17.60;99.90;;;;;;5038054;28;20168;-82
2021/08/19 01:26:17;;;;;;;2.70;2.57;;;17.80;99.90;;;;;;5037980;28;20192;-83
2021/08/19 01:28:45;;;;;;;2.93;2.73;;;17.80;99.90;;;;;;5038157;28;20224;-83
2021/08/19 01:31:17;;;;;;;2.83;2.50;;;17.70;99.90;;;;;;5038363;28;20396;-83
2021/08/19 01:33:45;;;;;;;3.30;3.00;;;17.80;99.90;;;;;;5037951;28;20427;-83
2021/08/19 01:36:11;;;;;;;3.47;3.27;;;17.80;99.90;;;;;;5038409;28;20398;-83
2021/08/19 01:38:37;;;;;;;3.13;2.93;;;17.80;99.90;;;;;;5037915;28;20487;-83
2021/08/19 01:41:03;;;;;;;2.90;2.70;;;17.80;99.90;;;;;;5038598;28;20391;-83
2021/08/19 01:43:30;;;;;;;3.53;3.30;;;17.80;99.90;;;;;;5038103;28;20407;-83
2021/08/19 01:45:58;;;;;;;2.57;2.43;;;17.70;99.90;;;;;;5038469;28;20192;-83
2021/08/19 01:48:23;;;;;;;2.90;2.70;;;17.70;99.90;;;;;;5038785;28;20438;-84
2021/08/19 01:50:49;;;;;;;3.40;2.83;;;17.80;99.90;;;;;;5039404;28;20395;-82
2021/08/19 01:53:14;;;;;;;3.27;2.97;;;17.80;99.90;;;;;;5050616;28;20180;-80
2021/08/19 01:55:40;;;;;;;3.83;2.83;;;17.80;99.90;;;;;;5052548;28;20191;-80
2021/08/19 01:58:06;;;;;;;3.07;2.73;;;17.80;99.90;;;;;;5051100;28;20161;-82
2021/08/19 02:00:32;;;;;;;3.60;2.87;;;17.60;99.90;;;;;;5039926;28;20498;-83
2021/08/19 02:03:00;;;;;;;3.33;3.03;;;17.70;99.90;;;;;;5045132;28;20411;-80
2021/08/19 02:05:26;;;;;;;3.20;3.00;;;17.80;99.90;;;;;;5038647;28;20204;-83
2021/08/19 02:07:51;;;;;;;3.40;3.20;;;17.70;99.90;;;;;;5037000;28;20399;-83
2021/08/19 02:10:17;;;;;;;2.87;2.67;;;17.70;99.90;;;;;;5019433;28;20853;-83
2021/08/19 02:12:43;;;;;;;4.10;3.20;;;17.70;99.90;;;;;;5019623;28;20243;-82
2021/08/19 02:15:09;;;;;;;3.10;2.90;;;17.70;99.90;;;;;;5037226;28;20176;-82
2021/08/19 02:17:34;;;;;;;3.50;3.20;;;17.60;99.90;;;;;;5036917;28;20172;-82
2021/08/19 02:20:00;;;;;;;2.80;2.60;;;17.70;99.90;;;;;;5037217;28;20655;-82
2021/08/19 02:22:25;;;;;;;3.20;2.93;;;17.60;99.90;;;;;;5041690;28;20191;-80
2021/08/19 02:24:52;;;;;;;2.70;2.50;;;17.70;99.90;;;;;;5050814;28;20204;-80
2021/08/19 02:27:17;;;;;;;3.30;3.10;;;17.70;99.90;;;;;;5042869;28;20167;-82
2021/08/19 02:29:43;;;;;;;3.53;3.23;;;17.70;99.90;;;;;;5037980;28;20392;-83
2021/08/19 02:32:08;;;;;;;6.37;2.93;;;17.80;99.90;;;;;;5040313;28;20509;-82
2021/08/19 02:34:34;;;;;;;2.70;2.50;;;17.60;99.90;;;;;;5040302;28;20157;-82
2021/08/19 02:36:59;;;;;;;3.13;2.77;;;17.50;99.90;;;;;;5040095;28;20161;-82
2021/08/19 02:39:25;;;;;;;3.13;2.83;;;17.60;99.90;;;;;;5040593;28;20165;-83
2021/08/19 02:41:50;;;;;;;3.73;3.40;;;17.60;99.90;;;;;;5040419;28;20157;-82
2021/08/19 02:44:16;;;;;;;3.67;3.37;;;17.50;99.90;;;;;;5040066;28;20302;-82
2021/08/19 02:46:41;;;;;;;3.40;3.10;;;17.40;99.90;;;;;;5040015;28;20159;-82
2021/08/19 02:49:07;;;;;;;4.40;4.10;;;17.50;99.90;;;;;;5040040;28;20161;-83
2021/08/19 02:51:32;;;;;;;3.40;3.10;;;17.30;99.90;;;;;;5040663;28;20682;-83
2021/08/19 02:53:58;;;;;;;2.83;2.63;;;17.30;99.90;;;;;;5040214;28;20249;-82
2021/08/19 02:56:24;;;;;;;2.70;2.50;;;17.30;99.90;;;;;;5040069;28;20211;-82
2021/08/19 02:58:49;;;;;;;3.40;3.10;;;17.30;99.90;;;;;;5040040;28;20275;-82
2021/08/19 03:01:14;;;;;;;2.53;2.40;;;17.30;99.90;;;;;;5039891;28;20198;-82
2021/08/19 03:03:40;;;;;;;3.00;2.80;;;17.40;99.90;;;;;;5039758;28;20227;-82
2021/08/19 03:06:05;;;;;;;3.60;3.30;;;17.50;99.90;;;;;;5039166;28;20184;-82
2021/08/19 03:08:31;;;;;;;3.97;3.67;;;17.50;99.90;;;;;;5039716;28;20719;-82
2021/08/19 03:10:56;;;;;;;3.73;3.13;;;17.40;99.90;;;;;;5039937;28;20188;-81
2021/08/19 03:13:22;;;;;;;2.60;2.40;;;17.30;99.90;;;;;;5039239;28;20192;-82
2021/08/19 03:15:47;;;;;;;4.07;3.30;;;17.40;99.90;;;;;;5039552;28;20172;-82
2021/08/19 03:18:13;;;;;;;3.77;3.30;;;17.30;99.90;;;;;;5022105;28;20165;-83
2021/08/19 03:20:38;;;;;;;3.00;2.80;;;17.30;99.90;;;;;;5041603;28;20168;-82
2021/08/19 03:23:04;;;;;;;3.33;3.13;;;17.40;99.90;;;;;;5044919;28;20160;-80
2021/08/19 03:25:30;;;;;;;3.00;2.80;;;17.50;99.90;;;;;;5048105;28;20196;-82
2021/08/19 03:28:00;;;;;;;5.30;4.23;;;17.60;99.90;;;;;;5042786;28;20167;-82
2021/08/19 03:30:27;;;;;;;3.50;3.20;;;17.50;99.90;;;;;;5040760;28;20393;-82
2021/08/19 03:32:52;;;;;;;2.87;2.67;;;17.30;99.90;;;;;;5041128;28;20392;-82
2021/08/19 03:35:18;;;;;;;2.63;2.50;;;17.40;99.90;;;;;;5039413;28;20836;-82
2021/08/19 03:37:44;;;;;;;3.27;3.07;;;17.50;99.90;;;;;;5039069;28;20612;-83
2021/08/19 03:40:10;;;;;;;2.63;2.43;;;17.50;99.90;;;;;;5038941;28;20598;-82
2021/08/19 03:42:37;;;;;;;4.07;3.00;;;17.50;99.90;;;;;;5038083;28;20201;-83
2021/08/19 03:45:05;;;;;;;4.17;3.87;;;17.50;99.90;;;;;;5039021;28;20443;-82
2021/08/19 03:47:31;;;;;;;4.50;4.10;;;17.50;99.90;;;;;;5039119;28;20395;-82
2021/08/19 03:49:56;;;;;;;2.97;2.77;;;17.50;99.90;;;;;;5038965;28;20403;-83
2021/08/19 03:52:22;;;;;;;4.70;3.30;;;17.40;99.90;;;;;;5039453;28;20161;-82
2021/08/19 03:54:47;;;;;;;4.07;3.67;;;17.50;99.90;;;;;;5039088;28;20193;-82
2021/08/19 03:57:13;;;;;;;3.90;3.60;;;17.50;99.90;;;;;;5038967;28;20252;-83
2021/08/19 03:59:38;;;;;;;3.73;3.43;;;17.40;99.90;;;;;;5039086;28;20188;-83
2021/08/19 04:02:04;;;;;;;3.77;3.47;;;17.30;99.90;;;;;;5038708;28;20530;-82
2021/08/19 04:04:30;;;;;;;3.30;3.10;;;17.20;99.90;;;;;;5038288;28;20201;-82
2021/08/19 04:06:55;;;;;;;3.87;3.57;;;17.30;99.90;;;;;;5038324;28;20165;-82
2021/08/19 04:09:21;;;;;;;3.67;3.37;;;17.30;99.90;;;;;;5038799;28;20193;-82
2021/08/19 04:11:46;;;;;;;3.30;3.00;;;17.50;99.90;;;;;;5020956;28;20573;-83
2021/08/19 04:14:12;;;;;;;4.03;3.73;;;17.40;99.90;;;;;;5038466;28;20161;-82
2021/08/19 04:16:37;;;;;;;3.30;3.10;;;17.20;99.90;;;;;;5020662;28;20263;-82
2021/08/19 04:19:03;;;;;;;3.63;3.43;;;17.20;99.90;;;;;;5038085;28;20179;-82
2021/08/19 04:21:28;;;;;;;3.90;3.50;;;17.20;99.90;;;;;;5038114;28;20171;-82
2021/08/19 04:23:54;;;;;;;3.77;3.50;;;17.20;99.90;;;;;;5038650;28;20163;-82
2021/08/19 04:26:20;;;;;;;3.50;3.20;;;17.10;99.90;;;;;;5038069;28;20196;-82
2021/08/19 04:28:45;;;;;;;3.23;2.93;;;17.10;99.90;;;;;;5038086;28;20165;-82
2021/08/19 04:31:11;;;;;;;6.73;3.17;;;17.20;99.90;;;;;;5038262;28;20161;-82
2021/08/19 04:33:36;;;;;;;3.10;2.90;;;17.00;99.90;;;;;;5020178;28;20590;-82
2021/08/19 04:36:03;;;;;;;3.57;3.30;;;17.00;99.90;;;;;;5037635;28;20164;-82
2021/08/19 04:38:29;;;;;;;3.63;3.33;;;17.00;99.90;;;;;;5037520;28;20314;-82
2021/08/19 04:40:55;;;;;;;4.20;3.10;;;17.00;99.90;;;;;;5003778;28;20446;-82
2021/08/19 04:43:21;;;;;;;4.90;4.17;;;17.10;99.90;;;;;;5038009;28;20408;-83
2021/08/19 04:45:47;;;;;;;4.10;3.67;;;17.00;99.90;;;;;;5038399;28;20188;-82
2021/08/19 04:48:13;;;;;;;4.00;3.60;;;17.10;99.90;;;;;;5039527;28;20388;-82
2021/08/19 04:50:38;;;;;;;3.40;3.10;;;17.20;99.90;;;;;;5038110;28;20259;-83
2021/08/19 04:53:04;;;;;;;3.00;2.80;;;17.20;99.90;;;;;;5037472;28;20161;-81
2021/08/19 04:55:29;;;;;;;3.77;3.47;;;17.20;99.90;;;;;;5037335;28;20172;-82
2021/08/19 04:57:55;;;;;;;6.00;4.50;;;17.30;99.90;;;;;;5037692;28;20172;-82
2021/08/19 05:00:20;;;;;;;3.90;3.60;;;17.20;99.90;;;;;;5039443;28;20566;-81
2021/08/19 05:02:46;;;;;;;4.47;4.17;;;17.30;99.90;;;;;;5039265;28;20255;-81
2021/08/19 05:05:11;;;;;;;5.57;3.40;;;17.10;99.90;;;;;;5038176;28;20200;-82
2021/08/19 05:07:37;;;;;;;4.47;4.17;;;17.00;99.90;;;;;;5037583;28;20168;-82
2021/08/19 05:10:03;;;;;;;4.53;4.13;;;16.90;99.90;;;;;;5038190;28;20161;-83
2021/08/19 05:12:29;;;;;;;5.50;3.77;;;17.10;99.90;;;;;;5038188;28;20164;-83
2021/08/19 05:14:54;;;;;;;5.00;4.60;;;17.10;99.90;;;;;;5038934;28;20883;-82
2021/08/19 05:17:19;;;;;;;6.23;3.60;;;17.00;99.90;;;;;;5038018;28;20165;-83
2021/08/19 05:19:45;;;;;;;3.70;3.40;;;17.10;99.90;;;;;;5038196;28;20222;-83
2021/08/19 05:22:11;;;;;;;4.40;4.00;;;17.10;99.90;;;;;;5038072;28;20553;-83
2021/08/19 05:24:39;;;;;;;5.17;4.67;;;16.90;99.90;;;;;;5020320;28;20214;-83
2021/08/19 05:27:05;;;;;;;6.20;5.00;;;16.90;99.90;;;;;;5036613;28;20928;-82
2021/08/19 05:29:30;;;;;;;5.40;4.50;;;17.00;99.90;;;;;;5036648;28;20169;-82
2021/08/19 05:31:56;;;;;;;4.83;4.50;;;17.10;99.90;;;;;;5036873;28;20507;-82
2021/08/19 05:34:22;;;;;;;5.77;5.13;;;17.00;99.90;;;;;;5019196;28;20190;-83
2021/08/19 05:36:47;;;;;;;5.17;4.60;;;16.90;99.90;;;;;;5037690;28;20172;-82
2021/08/19 05:39:13;;;;;;;7.03;5.10;;;17.00;99.90;;;;;;5036130;28;20212;-82
2021/08/19 05:41:38;;;;;;;4.47;4.17;;;17.00;99.90;;;;;;5036723;28;20687;-82
2021/08/19 05:44:04;;;;;;;7.43;5.00;;;17.20;99.90;;;;;;5036922;28;20175;-82
2021/08/19 05:46:30;;;;;;;4.57;4.27;;;17.30;99.90;;;;;;5036758;28;20544;-82
2021/08/19 05:48:55;;;;;;;4.37;4.07;;;17.50;99.90;;;;;;5037448;28;20395;-83
2021/08/19 05:51:21;;;;;;;5.60;5.07;;;17.60;99.90;;;;;;5037864;28;20163;-82
2021/08/19 05:53:46;;;;;;;7.20;4.70;;;17.50;99.90;;;;;;5036976;28;20160;-83
2021/08/19 05:56:12;;;;;;;5.47;4.97;;;17.40;99.90;;;;;;5037120;28;20157;-83
2021/08/19 05:58:37;;;;;;;4.87;4.50;;;17.30;99.90;;;;;;5036852;28;20226;-82
2021/08/19 06:01:03;;;;;;;6.07;5.43;;;17.30;99.90;;;;;;5036788;28;20181;-82
2021/08/19 06:03:28;;;;;;;4.60;4.20;;;17.40;99.90;;;;;;5043905;28;20176;-80
2021/08/19 06:05:54;;;;;;;6.83;5.20;;;17.50;99.90;;;;;;5052818;28;20211;-80
2021/08/19 06:08:19;;;;;;;4.53;4.23;;;17.60;99.90;;;;;;5044670;28;20350;-82
2021/08/19 06:10:45;;;;;;;5.20;4.50;;;17.70;99.90;;;;;;5041620;28;20251;-82
2021/08/19 06:13:11;;;;;;;5.90;5.47;;;17.80;99.90;;;;;;5022814;28;20176;-83
2021/08/19 06:15:37;;;;;;;5.80;5.10;;;17.80;99.90;;;;;;5040283;28;20177;-82
2021/08/19 06:18:02;;;;;;;5.43;4.93;;;17.70;99.90;;;;;;5040907;28;20188;-83
2021/08/19 06:20:28;;;;;;;5.30;4.80;;;17.80;99.90;;;;;;5040755;28;20396;-83
2021/08/19 06:22:55;;;;;;;5.53;5.03;;;17.80;99.90;;;;;;5040815;28;20169;-83
2021/08/19 06:25:21;;;;;;;5.20;4.80;;;17.90;99.90;;;;;;5040430;28;20205;-82
2021/08/19 06:27:47;;;;;;;5.68;4.97;;;17.70;99.90;;;;;;5040118;28;20518;-83
2021/08/19 06:30:14;;;;;;;5.80;5.30;;;17.60;99.90;;;;;;5041231;28;20168;-83
2021/08/19 06:32:39;;;;;;;4.77;4.37;;;17.70;99.90;;;;;;5041828;28;20391;-83
2021/08/19 06:35:06;;;;;;;6.77;5.27;;;17.80;99.90;;;;;;5040701;28;20426;-83
2021/08/19 06:37:32;;;;;;;6.00;5.40;;;17.90;99.90;;;;;;5040427;28;20274;-83
2021/08/19 06:39:58;;;;;;;5.10;4.60;;;17.90;99.90;;;;;;5042061;28;20391;-83
2021/08/19 06:42:23;;;;;;;6.30;5.70;;;18.00;99.90;;;;;;5041024;28;20641;-82
2021/08/19 06:44:49;;;;;;;5.37;4.93;;;17.90;99.90;;;;;;5041011;28;20208;-82
2021/08/19 06:47:14;;;;;;;5.00;4.60;;;18.10;99.90;;;;;;5023373;28;20192;-82
2021/08/19 06:49:41;;;;;;;4.93;4.53;;;18.20;99.90;;;;;;5041959;28;20160;-84
2021/08/19 06:52:07;;;;;;;4.57;4.17;;;18.30;99.90;;;;;;5039623;28;20266;-83
2021/08/19 06:54:33;;;;;;;4.77;4.37;;;18.40;99.90;;;;;;5042214;28;20425;-83
2021/08/19 06:57:00;;;;;;;5.40;5.00;;;18.30;99.90;;;;;;5042266;28;20521;-83
2021/08/19 06:59:26;;;;;;;4.83;4.43;;;18.50;99.90;;;;;;5045836;28;20232;-83
2021/08/19 07:01:52;;;;;;;5.03;4.67;;;18.70;99.90;;;;;;5039424;28;20502;-82
2021/08/19 07:04:17;;;;;;;3.97;3.67;;;18.70;99.90;;;;;;5039835;28;20165;-82
2021/08/19 07:06:43;;;;;;;4.70;4.30;;;18.80;99.90;;;;;;5039866;28;20602;-82
2021/08/19 07:09:08;;;;;;;4.70;4.30;;;18.90;99.90;;;;;;5034283;28;20196;-82
2021/08/19 07:11:34;;;;;;;3.93;3.63;;;19.00;99.90;;;;;;5022079;28;20514;-82
2021/08/19 07:13:59;;;;;;;4.10;3.80;;;19.10;99.90;;;;;;5038807;28;20295;-81
2021/08/19 07:16:25;;;;;;;4.00;3.70;;;19.00;99.90;;;;;;5039021;28;20199;-83
2021/08/19 07:18:50;;;;;;;3.70;3.50;;;19.00;99.90;;;;;;5021733;28;20173;-83
2021/08/19 07:21:17;;;;;;;3.80;3.50;;;19.00;99.90;;;;;;5039647;28;20274;-83
2021/08/19 07:23:43;;;;;;;3.93;3.63;;;19.10;99.90;;;;;;5039430;28;20173;-83
2021/08/19 07:26:08;;;;;;;4.10;3.80;;;19.20;99.90;;;;;;5039621;28;20490;-83
2021/08/19 07:28:34;;;;;;;3.97;3.67;;;19.20;99.90;;;;;;5039586;28;20165;-82
2021/08/19 07:30:59;;;;;;;3.67;3.37;;;19.20;99.90;;;;;;5038605;28;20169;-81
2021/08/19 07:33:25;;;;;;;7.30;4.07;;;19.20;99.90;;;;;;5038007;28;20161;-82
2021/08/19 07:35:50;;;;;;;3.63;3.43;;;19.00;99.90;;;;;;5039043;28;20184;-82
2021/08/19 07:38:18;;;;;;;3.10;2.80;;;18.80;99.90;;;;;;5038934;28;20284;-82
2021/08/19 07:40:44;;;;;;;3.33;3.03;;;18.90;99.90;;;;;;5023654;28;20188;-82
2021/08/19 07:43:10;;;;;;;3.23;2.90;;;18.80;99.90;;;;;;5023830;28;20407;-83
2021/08/19 07:45:36;;;;;;;5.13;3.40;;;18.60;99.90;;;;;;5041954;28;20459;-83
2021/08/19 07:48:10;;;;;;;3.53;3.23;;;18.60;99.90;;;;;;5044658;28;20197;-80
2021/08/19 07:50:37;;;;;;;3.70;3.07;;;18.40;99.90;;;;;;5048826;28;20402;-80
2021/08/19 07:53:04;;;;;;;4.53;4.13;;;18.50;99.90;;;;;;5039079;28;20468;-82
2021/08/19 07:55:30;;;;;;;3.93;3.63;;;18.30;99.90;;;;;;5044457;28;20399;-83
2021/08/19 07:57:55;;;;;;;3.60;2.43;;;18.40;99.90;;;;;;5039034;28;20399;-83
2021/08/19 08:00:25;;;;;;;3.17;2.87;;;18.40;99.90;;;;;;5021293;28;20259;-83
2021/08/19 08:02:52;;;;;;;3.73;3.40;;;18.50;99.90;;;;;;5018761;28;20170;-82
2021/08/19 08:05:18;;;;;;;4.07;3.77;;;18.40;99.90;;;;;;5019059;28;20938;-82
2021/08/19 08:07:44;;;;;;;6.00;4.23;;;18.30;99.90;;;;;;5007495;28;20408;-82
2021/08/19 08:10:10;;;;;;;3.37;3.13;;;18.30;99.90;;;;;;5037805;28;20438;-82
2021/08/19 08:12:35;;;;;;;3.70;2.83;;;18.30;99.90;;;;;;5038982;28;20173;-82
2021/08/19 08:15:02;;;;;;;3.33;3.13;;;18.30;99.90;;;;;;5038020;28;20430;-82
2021/08/19 08:17:28;;;;;;;2.80;2.60;;;18.00;99.90;;;;;;5037614;28;20193;-82
2021/08/19 08:19:54;;;;;;;3.00;2.80;;;18.20;99.90;;;;;;5038469;28;20418;-82
2021/08/19 08:22:20;;;;;;;2.70;2.50;;;18.10;99.90;;;;;;5038006;28;20420;-83
2021/08/19 08:24:46;;;;;;;2.93;2.60;;;18.30;99.90;;;;;;5038219;28;20197;-83
2021/08/19 08:27:12;;;;;;;3.33;3.03;;;18.70;99.90;;;;;;5037187;28;20537;-82
2021/08/19 08:29:37;;;;;;;3.23;3.03;;;18.70;99.90;;;;;;5020258;28;20585;-82
2021/08/19 08:32:06;;;;;;;3.87;3.13;;;18.80;99.90;;;;;;5019912;28;20411;-83
2021/08/19 08:34:36;;;;;;;2.60;2.40;;;18.50;99.90;;;;;;5038574;28;20632;-83
2021/08/19 08:37:02;;;;;;;6.47;3.10;;;18.80;99.90;;;;;;5038431;28;20415;-83
2021/08/19 08:39:34;;;;;;;2.80;2.60;;;18.80;99.90;;;;;;5020399;28;20797;-83
2021/08/19 08:42:00;;;;;;;3.20;2.90;;;18.50;99.90;;;;;;5038117;28;20650;-83
2021/08/19 08:44:28;;;;;;;4.20;3.80;;;18.60;99.90;;;;;;5020466;28;20425;-83
2021/08/19 08:46:55;;;;;;;3.73;3.43;;;18.90;99.90;;;;;;5037957;28;20183;-83
2021/08/19 08:49:23;;;;;;;3.87;3.57;;;19.00;99.90;;;;;;5037839;28;20411;-82
2021/08/19 08:51:56;;;;;;;3.33;3.00;;;19.10;99.90;;;;;;5037851;28;20392;-82
2021/08/19 08:54:22;;;;;;;2.67;2.47;;;19.20;99.90;;;;;;5038048;28;20399;-83
2021/08/19 08:56:48;;;;;;;5.53;3.47;;;19.60;99.90;;;;;;5037123;28;20415;-83
2021/08/19 08:59:13;;;;;;;3.03;2.83;;;20.10;99.90;;;;;;5037683;28;20440;-83
2021/08/19 09:01:39;;;;;;;3.50;3.17;;;20.40;99.90;;;;;;5037685;28;20173;-83
2021/08/19 09:04:07;;;;;;;3.00;2.80;;;20.80;99.90;;;;;;5038153;28;20260;-83
2021/08/19 09:06:38;;;;;;;4.03;3.73;;;20.60;99.90;;;;;;5048784;28;20231;-82
2021/08/19 09:09:22;;;;;;;3.50;3.20;;;20.80;99.90;;;;;;5042921;28;20431;-82
2021/08/19 09:12:00;;;;;;;3.30;3.10;;;20.70;99.90;;;;;;5045460;28;20513;-80
2021/08/19 09:14:27;;;;;;;5.43;3.10;;;21.10;99.90;;;;;;5050403;28;20423;-83
2021/08/19 09:16:53;;;;;;;3.07;2.87;;;21.00;99.90;;;;;;5040499;28;20407;-84
2021/08/19 09:19:21;;;;;;;3.03;2.80;;;20.40;99.90;;;;;;5037859;28;20394;-83
2021/08/19 09:21:52;;;;;;;3.30;2.87;;;20.50;99.90;;;;;;5020690;28;20192;-82
2021/08/19 09:24:23;;;;;;;2.97;2.70;;;20.40;99.90;;;;;;5040062;28;20470;-83
2021/08/19 09:26:49;;;;;;;2.90;2.70;;;20.20;99.90;;;;;;5022120;28;20735;-83
2021/08/19 09:29:21;;;;;;;7.30;2.93;;;20.00;99.90;;;;;;5020613;28;20875;-83
2021/08/19 09:31:48;;;;;;;2.90;2.70;;;19.70;99.90;;;;;;5020044;28;20723;-82
2021/08/19 09:34:14;;;;;;;3.60;3.30;;;19.70;99.90;;;;;;5037557;28;20771;-84
2021/08/19 09:36:40;;;;;;;3.20;2.63;;;19.60;99.90;;;;;;5038014;28;20415;-83
2021/08/19 09:39:06;;;;;;;3.07;2.77;;;19.60;99.90;;;;;;5040389;28;20500;-83
2021/08/19 09:41:48;;;;;;;3.10;2.90;;;19.50;99.90;;;;;;5042012;28;20161;-84
2021/08/19 09:44:27;;;;;;;3.77;2.60;;;19.60;99.90;;;;;;4982984;28;20441;-79
2021/08/19 09:46:52;;;;;;;3.50;3.20;;;19.70;99.90;;;;;;4989666;28;20494;-83
2021/08/19 09:49:32;;;;;;;5.87;3.60;;;19.80;99.90;;;;;;4988162;28;20438;-82
2021/08/19 09:52:13;;;;;;;3.40;3.10;;;19.90;99.90;;;;;;4963702;28;20596;-82
2021/08/19 09:54:41;;;;;;;3.90;3.50;;;19.80;99.90;;;;;;4980843;28;20505;-83
2021/08/19 09:57:08;;;;;;;3.87;3.57;;;19.90;99.90;;;;;;4981710;28;20461;-83
2021/08/19 09:59:36;;;;;;;2.90;2.70;;;19.80;99.90;;;;;;4981470;28;20433;-83
2021/08/19 10:02:03;;;;;;;4.30;3.17;;;19.80;99.90;;;;;;4981201;28;20398;-83
2021/08/19 10:04:49;;;;;;;3.53;2.73;;;19.90;99.90;;;;;;4960315;29;20468;-81
2021/08/19 10:07:14;;;;;;;4.50;4.20;;;20.30;99.90;;;;;;4961634;29;20502;-83
2021/08/19 10:09:40;;;;;;;3.60;3.30;;;20.50;99.90;;;;;;4951765;29;20299;-83
2021/08/19 10:12:08;;;;;;;3.97;2.93;;;20.40;99.90;;;;;;4934245;29;20175;-83
2021/08/19 10:14:34;;;;;;;3.37;3.07;;;20.20;99.90;;;;;;4970150;28;20286;-83
2021/08/19 10:16:59;;;;;;;3.83;3.53;;;20.50;99.90;;;;;;5000080;28;20876;-82
2021/08/19 10:19:31;;;;;;;5.17;2.73;;;20.50;99.90;;;;;;5000601;28;20203;-83
2021/08/19 10:22:05;;;;;;;3.20;2.90;;;20.60;99.90;;;;;;4999411;28;20246;-82
2021/08/19 10:24:34;;;;;;;3.83;3.37;;;20.70;99.90;;;;;;4999137;28;20511;-83
2021/08/19 10:27:09;;;;;;;2.90;2.70;;;20.80;99.90;;;;;;4999707;28;20397;-83
2021/08/19 10:29:46;;;;;;;3.80;3.50;;;20.80;99.90;;;;;;5000268;28;20584;-84
2021/08/19 10:32:21;;;;;;;3.57;3.20;;;20.70;99.90;;;;;;5000420;28;20428;-83
2021/08/19 10:35:06;;;;;;;3.30;3.00;;;20.90;99.90;;;;;;5003708;28;20607;-83
2021/08/19 10:38:00;;;;;;;3.33;3.13;;;20.30;99.90;;;;;;5041323;28;20462;-83
2021/08/19 10:40:36;;;;;;;2.60;2.40;;;20.60;99.90;;;;;;5041016;28;20422;-84
2021/08/19 10:43:40;;;;;;;2.93;2.73;;;20.70;99.90;;;;;;5041175;28;20410;-82
2021/08/19 10:46:08;;;;;;;4.07;2.90;;;20.90;99.90;;;;;;5023708;28;20442;-83
2021/08/19 10:48:46;;;;;;;2.90;2.70;;;21.10;99.90;;;;;;5040658;28;20739;-83
2021/08/19 10:51:12;;;;;;;15.23;3.40;;;21.40;99.90;;;;;;5022355;28;20411;-84
2021/08/19 10:53:38;;;;;;;3.00;2.73;;;21.50;99.90;;;;;;5041191;28;20400;-82
2021/08/19 10:56:04;;;;;;;2.50;2.30;;;21.50;99.90;;;;;;5041055;28;20457;-83
2021/08/19 10:58:32;;;;;;;3.30;2.93;;;21.40;99.90;;;;;;5042125;28;20175;-83
2021/08/19 11:01:00;;;;;;;3.23;2.93;;;21.50;99.90;;;;;;5041810;28;20366;-83
2021/08/19 11:03:40;;;;;;;2.60;2.40;;;21.60;99.90;;;;;;5041284;28;20877;-82
2021/08/19 11:06:09;;;;;;;4.03;3.43;;;21.30;99.90;;;;;;5041493;28;20435;-83
2021/08/19 11:08:39;;;;;;;3.20;3.00;;;21.30;99.90;;;;;;5040705;28;20463;-84
2021/08/19 11:11:06;;;;;;;3.33;3.00;;;21.50;99.90;;;;;;5040275;28;20526;-83
2021/08/19 11:13:34;;;;;;;2.67;2.47;;;21.30;99.90;;;;;;5040485;28;20491;-84
2021/08/19 11:16:04;;;;;;;3.13;2.83;;;21.40;99.90;;;;;;5040777;28;20429;-84
2021/08/19 11:18:32;;;;;;;3.10;2.80;;;21.70;99.90;;;;;;5040869;28;20402;-84
2021/08/19 11:20:59;;;;;;;4.37;3.07;;;21.80;99.90;;;;;;5040231;28;20395;-83
2021/08/19 11:23:31;;;;;;;3.47;3.27;;;21.90;99.90;;;;;;5023094;28;20408;-83
2021/08/19 11:26:07;;;;;;;2.70;2.50;;;21.90;99.90;;;;;;5041079;28;21012;-84
2021/08/19 11:28:36;;;;;;;3.13;2.83;;;21.90;99.90;;;;;;5016438;28;20431;-83
2021/08/19 11:31:20;;;;;;;3.03;2.83;;;21.50;99.90;;;;;;5029938;28;20434;-83
2021/08/19 11:33:47;;;;;;;2.83;2.63;;;21.60;99.90;;;;;;5040875;28;20946;-83
2021/08/19 11:36:15;;;;;;;3.43;2.90;;;21.40;99.90;;;;;;5040649;28;20482;-83
2021/08/19 11:38:41;;;;;;;3.00;2.80;;;21.70;99.90;;;;;;5030177;28;20473;-84
2021/08/19 11:41:15;;;;;;;2.73;2.53;;;21.70;99.90;;;;;;5055076;28;20421;-84
2021/08/19 11:43:42;;;;;;;2.80;2.40;;;21.50;99.90;;;;;;5059512;28;20770;-83
2021/08/19 11:46:11;;;;;;;2.90;2.60;;;21.50;99.90;;;;;;5046173;28;20455;-80
2021/08/19 11:48:46;;;;;;;2.47;2.27;;;21.60;99.90;;;;;;5056775;28;20454;-83
2021/08/19 11:51:34;;;;;;;3.00;2.77;;;21.60;99.90;;;;;;5058742;28;20487;-83
2021/08/19 11:54:04;;;;;;;3.50;2.40;;;21.60;99.90;;;;;;5043012;28;20411;-83
2021/08/19 11:56:31;;;;;;;3.13;2.93;;;21.90;99.90;;;;;;5048027;28;20419;-82
2021/08/19 11:59:11;;;;;;;3.00;2.73;;;22.00;99.90;;;;;;5023187;28;20406;-83
2021/08/19 12:01:39;;;;;;;2.13;1.93;;;21.90;99.90;;;;;;5049302;28;20438;-84
2021/08/19 12:04:06;;;;;;;2.77;2.60;;;22.40;99.90;;;;;;5060002;28;20406;-83
2021/08/19 12:06:33;;;;;;;3.37;3.10;;;22.70;99.90;;;;;;5059697;28;20457;-83
2021/08/19 12:09:07;;;;;;;2.83;2.63;;;21.60;99.90;;;;;;5062014;28;20434;-83
2021/08/19 12:11:38;;;;;;;2.50;2.30;;;21.90;99.90;;;;;;5059638;28;20438;-83
2021/08/19 12:14:06;;;;;;;3.00;2.53;;;22.20;99.90;;;;;;5042375;28;20510;-83
2021/08/19 12:16:32;;;;;;;2.80;2.60;;;22.10;99.90;;;;;;5040663;28;20406;-83
2021/08/19 12:19:16;;;;;;;3.20;2.80;;;22.50;99.90;;;;;;5039425;28;20825;-82
2021/08/19 12:21:54;;;;;;;3.80;2.63;;;22.50;99.90;;;;;;5042793;28;20920;-81
2021/08/19 12:24:31;;;;;;;2.73;2.17;;;22.60;99.90;;;;;;5040460;28;20407;-83
2021/08/19 12:27:16;;;;;;;3.37;2.80;;;22.80;99.90;;;;;;5040453;28;20403;-84
2021/08/19 12:29:54;;;;;;;2.87;2.60;;;22.80;99.90;;;;;;5039707;28;20387;-82
2021/08/19 12:32:35;;;;;;;3.57;3.27;;;22.30;99.90;;;;;;5040919;28;20423;-83
2021/08/19 12:35:11;;;;;;;5.10;2.50;;;22.10;99.90;;;;;;5039621;28;20383;-83
2021/08/19 12:37:39;;;;;;;5.20;2.67;;;22.30;99.90;;;;;;5039761;28;20826;-84
2021/08/19 12:40:14;;;;;;;2.50;2.30;;;22.40;99.90;;;;;;5040924;28;20392;-83
2021/08/19 12:42:41;;;;;;;2.20;2.10;;;22.50;99.90;;;;;;5040168;28;20391;-83
2021/08/19 12:45:27;;;;;;;2.50;2.40;;;22.40;99.90;;;;;;5018808;28;20582;-83
2021/08/19 12:48:02;;;;;;;2.67;2.47;;;22.70;99.90;;;;;;5024817;28;20509;-84
2021/08/19 12:50:27;;;;;;;2.40;2.10;;;22.50;99.90;;;;;;5038712;28;20180;-83